Huvudsida
METAR-TAF:

METAR-TAF

Flygplatser :

Jammu Airport

Jammu, Indien

latitud: 32-41-21N, longitud: 74-50-15E, höjd: 314 m

Aktuellt väderrapport

Denna rapport gjordes för 16 timmar och 12 minuter sedan, klockan 18:00 UTC
Vind 9 kt från nord/nordost
Temperatur 35°C
Fuktighet 19%
Tryck 1000 hPa
Sikt: 6000 m
Få moln på en höjd av 2500 ft

METAR: VIJU 191800Z 02009KT 6000 FEW025 35/08 Q1000 NOSIG

Tid: 15:42 (10:12 UTC)

Väderprognos

Denna rapport gjordes för 6 timmar och 42 minuter sedan, klockan 03:30 UTC
Prognos gäller från 20 kl. 06 UTC till 20 kl. 18 UTC
Vind 10 kt från väst/sydväst
Sikt: 6000 m
Få moln på en höjd av 2500 ft
Temporärt
från 20 kl. 09 UTC till 20 kl. 12 UTC
Få moln på en höjd av 2500 ft
Få moln på en höjd av 3000 ft, Högtornande cumulus.
Spridda moln på en höjd av 20000 ft
Blir
från 20 kl. 16 UTC till 20 kl. 18 UTC
Vind 10 kt från nordost

TAF: VIJU 200330Z 2006/2018 24010KT 6000 FEW025 TEMPO 2009/2012 FEW025 FEW030TCU SCT200 BECMG 2016/2018 05010KT

Aktuella väderrapporter och prognoser från 4000 flygplatser (METAR- och TAF-rapporter).

De tillgängliga stationerna syns som gula och röda prickar på kartan.

För musen över prickarna för att se namnen på stationerna.

Klicka sedan för att få väderrapporter och prognoser.

För att ändra kartan: Klicka på de gröna knapparna med ett svart kors på för att zooma in; den gröna knappen med ett streck på för att zooma ut; eller på de gröna pilarna för angränsande kartor.


METAR-TAF: